createdAt,value
2022-09-09T00:01:54.883Z,25.47
2022-09-09T00:07:04.388Z,25.46
2022-09-09T00:12:13.544Z,25.41
2022-09-09T00:17:27.277Z,25.38
2022-09-09T00:22:32.887Z,25.36
2022-09-09T00:27:43.671Z,25.34
2022-09-09T00:32:46.453Z,25.33
2022-09-09T00:37:52.910Z,25.29
2022-09-09T00:43:14.794Z,25.26
2022-09-09T00:48:17.638Z,25.24
2022-09-09T00:53:31.761Z,25.21
2022-09-09T00:58:36.110Z,25.18
2022-09-09T01:03:41.120Z,25.14
2022-09-09T01:09:19.735Z,25.12
2022-09-09T01:14:37.824Z,25.10
2022-09-09T01:19:52.064Z,25.06
2022-09-09T01:25:17.594Z,24.99
2022-09-09T01:30:41.276Z,25.00
2022-09-09T01:35:52.713Z,24.96
2022-09-09T01:40:57.136Z,24.92
2022-09-09T01:46:07.481Z,24.91
2022-09-09T01:51:12.297Z,24.89
2022-09-09T01:56:28.847Z,24.87
2022-09-09T02:01:45.791Z,24.84
2022-09-09T02:06:52.542Z,24.80
2022-09-09T02:12:10.804Z,24.78
2022-09-09T02:17:26.935Z,24.76
2022-09-09T02:22:37.765Z,24.73
2022-09-09T02:27:43.202Z,24.69
2022-09-09T02:32:49.341Z,24.68
2022-09-09T02:37:57.269Z,24.65
2022-09-09T02:43:01.011Z,24.64
2022-09-09T02:48:16.173Z,24.61
2022-09-09T02:53:24.695Z,24.58
2022-09-09T02:58:28.647Z,24.55
2022-09-09T03:03:37.582Z,24.54
2022-09-09T03:08:49.392Z,24.52
2022-09-09T03:13:54.384Z,24.50
2022-09-09T03:18:59.062Z,24.48
2022-09-09T03:24:04.751Z,24.48
2022-09-09T03:29:08.179Z,24.45
2022-09-09T03:34:12.685Z,24.43
2022-09-09T03:39:15.561Z,24.41
2022-09-09T03:44:19.849Z,24.39
2022-09-09T03:49:25.081Z,24.37
2022-09-09T03:54:28.319Z,24.35
2022-09-09T03:59:32.757Z,24.33
2022-09-09T04:04:36.889Z,24.33
2022-09-09T04:09:40.000Z,24.31
2022-09-09T04:14:42.784Z,24.31
2022-09-09T04:19:47.530Z,24.28
2022-09-09T04:24:50.214Z,24.26
2022-09-09T04:29:57.627Z,24.24
2022-09-09T04:35:03.708Z,24.22
2022-09-09T04:40:10.783Z,24.20
2022-09-09T04:45:14.434Z,24.17
2022-09-09T04:50:19.649Z,24.16
2022-09-09T04:55:23.283Z,24.15
2022-09-09T05:00:26.258Z,24.13
2022-09-09T05:05:31.046Z,24.12
2022-09-09T05:10:34.565Z,24.10
2022-09-09T05:15:37.523Z,24.11
2022-09-09T05:20:43.472Z,24.09
2022-09-09T05:25:57.893Z,24.08
2022-09-09T05:31:04.756Z,24.09
2022-09-09T05:36:14.176Z,24.08
2022-09-09T05:41:18.749Z,24.08
2022-09-09T05:46:24.891Z,24.08
2022-09-09T05:51:31.908Z,24.07
2022-09-09T05:56:38.924Z,24.08
2022-09-09T06:01:43.876Z,24.08
2022-09-09T06:06:56.149Z,24.08
2022-09-09T06:11:59.596Z,24.07
2022-09-09T06:17:03.347Z,24.08
2022-09-09T06:22:08.535Z,24.08
2022-09-09T06:27:14.660Z,24.07
2022-09-09T06:32:18.460Z,24.08
2022-09-09T06:37:25.036Z,24.08
2022-09-09T06:42:28.165Z,24.09
2022-09-09T06:47:40.541Z,24.09
2022-09-09T06:52:48.628Z,24.09
2022-09-09T06:57:52.008Z,24.09
2022-09-09T07:02:58.736Z,24.10
2022-09-09T07:08:03.145Z,24.09
2022-09-09T07:13:06.820Z,24.10
2022-09-09T07:18:11.129Z,24.09
2022-09-09T07:23:15.658Z,24.11
2022-09-09T07:28:18.869Z,24.14
2022-09-09T07:33:21.905Z,24.16
2022-09-09T07:38:26.322Z,24.18
2022-09-09T07:43:29.007Z,23.98
2022-09-09T07:48:31.804Z,23.68
2022-09-09T07:53:37.375Z,23.46
2022-09-09T07:58:41.911Z,23.32
2022-09-09T08:03:46.027Z,23.04
2022-09-09T08:08:51.916Z,23.07
2022-09-09T08:13:59.035Z,22.98
2022-09-09T08:19:06.487Z,22.95
2022-09-09T08:24:12.409Z,22.92
2022-09-09T08:29:15.758Z,22.98
2022-09-09T08:34:21.470Z,23.01
2022-09-09T08:39:27.543Z,22.95
2022-09-09T08:44:49.039Z,22.93
2022-09-09T08:50:07.818Z,22.81
2022-09-09T08:55:26.458Z,22.85
2022-09-09T09:00:40.612Z,22.81
2022-09-09T09:05:50.294Z,22.78
2022-09-09T09:10:59.165Z,22.79
2022-09-09T09:16:12.574Z,22.84
2022-09-09T09:21:21.429Z,22.95
2022-09-09T09:26:31.026Z,23.05
2022-09-09T09:31:35.087Z,23.10
2022-09-09T09:36:45.562Z,23.20
2022-09-09T09:41:51.848Z,23.26
2022-09-09T09:47:08.688Z,23.29
2022-09-09T09:52:19.092Z,23.27
2022-09-09T09:57:29.988Z,23.28
2022-09-09T10:02:40.845Z,23.25
2022-09-09T10:07:47.031Z,23.27
2022-09-09T10:13:01.666Z,23.27
2022-09-09T10:18:20.304Z,23.32
2022-09-09T10:23:38.808Z,23.49
2022-09-09T10:29:08.651Z,23.59
2022-09-09T10:34:28.459Z,23.70
2022-09-09T10:39:42.219Z,23.80
2022-09-09T10:45:05.493Z,23.89
2022-09-09T10:50:38.066Z,23.94
2022-09-09T10:55:57.662Z,23.99
2022-09-09T11:01:08.763Z,24.04
2022-09-09T11:06:17.028Z,24.09
2022-09-09T11:11:23.806Z,24.15
2022-09-09T11:16:32.459Z,24.21
2022-09-09T11:21:42.885Z,24.26
2022-09-09T11:26:53.533Z,24.33
2022-09-09T11:32:10.225Z,24.36
2022-09-09T11:37:50.622Z,24.43
2022-09-09T11:43:06.843Z,24.49
2022-09-09T11:48:27.236Z,24.57
2022-09-09T11:53:29.872Z,24.60
2022-09-09T11:58:39.547Z,24.59
2022-09-09T12:03:49.471Z,24.63
2022-09-09T12:08:56.030Z,24.64
2022-09-09T12:14:00.605Z,24.69
2022-09-09T12:19:17.572Z,24.71
2022-09-09T12:24:28.824Z,24.75
2022-09-09T12:29:41.688Z,24.83
2022-09-09T12:34:50.011Z,24.87
2022-09-09T12:39:57.698Z,24.90
2022-09-09T12:45:01.838Z,24.96
2022-09-09T12:50:06.909Z,24.99
2022-09-09T12:55:18.166Z,25.01
2022-09-09T13:00:23.348Z,25.04
2022-09-09T13:05:29.700Z,25.08
2022-09-09T13:10:52.884Z,25.13
2022-09-09T13:15:59.678Z,25.22
2022-09-09T13:21:04.281Z,25.31
2022-09-09T13:26:22.379Z,25.42
2022-09-09T13:31:30.742Z,25.52
2022-09-09T13:36:37.097Z,25.58
2022-09-09T13:41:49.442Z,25.57
2022-09-09T13:47:08.037Z,25.51
2022-09-09T13:52:17.732Z,25.49
2022-09-09T13:57:22.290Z,25.47
2022-09-09T14:02:26.106Z,25.48
2022-09-09T14:07:30.351Z,25.46
2022-09-09T14:12:32.936Z,25.46
2022-09-09T14:17:36.591Z,25.47
2022-09-09T14:22:41.710Z,25.50
2022-09-09T14:27:44.342Z,25.50
2022-09-09T14:32:47.254Z,25.51
2022-09-09T14:37:51.427Z,25.48
2022-09-09T14:42:54.851Z,25.52
2022-09-09T14:47:57.862Z,25.50
2022-09-09T14:53:01.815Z,25.53
2022-09-09T14:58:05.128Z,25.59
2022-09-09T15:03:07.731Z,25.64
2022-09-09T15:08:11.725Z,25.62
2022-09-09T15:13:17.839Z,25.91
2022-09-09T15:18:20.396Z,26.09
2022-09-09T15:23:24.420Z,26.03
2022-09-09T15:28:27.225Z,26.00
2022-09-09T15:33:30.073Z,25.95
2022-09-09T15:38:34.573Z,25.95
2022-09-09T15:43:37.250Z,25.93
2022-09-09T15:48:40.365Z,25.91
2022-09-09T15:53:44.391Z,25.93
2022-09-09T15:58:47.043Z,25.88
2022-09-09T16:03:51.092Z,25.86
2022-09-09T16:08:55.860Z,25.85
2022-09-09T16:13:59.408Z,25.91
2022-09-09T16:19:06.229Z,25.88
2022-09-09T16:24:11.995Z,25.88
2022-09-09T16:29:16.168Z,26.00
2022-09-09T16:34:19.563Z,26.29
2022-09-09T16:39:24.151Z,26.42
2022-09-09T16:44:27.113Z,26.46
2022-09-09T16:49:30.113Z,26.50
2022-09-09T16:54:34.078Z,26.50
2022-09-09T16:59:36.986Z,26.44
2022-09-09T17:04:40.134Z,26.29
2022-09-09T17:09:45.215Z,26.26
2022-09-09T17:14:47.984Z,26.27
2022-09-09T17:19:51.183Z,26.27
2022-09-09T17:24:55.821Z,26.30
2022-09-09T17:29:59.276Z,26.30
2022-09-09T17:35:01.864Z,26.26
2022-09-09T17:40:07.149Z,26.30
2022-09-09T17:45:10.845Z,26.29
2022-09-09T17:50:13.708Z,26.25
2022-09-09T17:55:18.064Z,26.27
2022-09-09T18:00:20.989Z,26.27
2022-09-09T18:05:24.123Z,26.27
2022-09-09T18:10:28.069Z,26.26
2022-09-09T18:15:48.806Z,26.25
2022-09-09T18:20:59.451Z,26.25
2022-09-09T18:26:03.621Z,26.25
2022-09-09T18:31:08.168Z,26.25
2022-09-09T18:36:12.952Z,26.24
2022-09-09T18:41:18.322Z,26.24
2022-09-09T18:46:22.060Z,26.23
2022-09-09T18:51:26.795Z,26.22
2022-09-09T18:56:31.744Z,26.23
2022-09-09T19:01:36.059Z,26.26
2022-09-09T19:06:41.412Z,26.25
2022-09-09T19:11:46.051Z,26.27
2022-09-09T19:16:48.802Z,26.24
2022-09-09T19:21:51.829Z,26.25
2022-09-09T19:26:59.954Z,26.28
2022-09-09T19:32:51.743Z,26.31
2022-09-09T19:37:26.263Z,26.30
2022-09-09T19:42:32.148Z,26.27
2022-09-09T19:47:34.805Z,26.28
2022-09-09T19:52:38.947Z,26.33
2022-09-09T19:57:42.968Z,26.36
2022-09-09T20:03:02.618Z,26.34
2022-09-09T20:08:05.518Z,26.34
2022-09-09T20:13:09.406Z,26.38
2022-09-09T20:18:11.976Z,26.34
2022-09-09T20:23:16.242Z,26.36
2022-09-09T20:28:21.116Z,26.38
2022-09-09T20:33:23.717Z,26.42
2022-09-09T20:38:26.349Z,26.41
2022-09-09T20:43:30.461Z,26.44
2022-09-09T20:48:34.451Z,26.45
2022-09-09T20:53:37.774Z,26.44
2022-09-09T20:58:41.744Z,26.45
2022-09-09T21:03:44.554Z,26.45
2022-09-09T21:08:47.945Z,26.41
2022-09-09T21:13:52.267Z,26.41
2022-09-09T21:18:55.583Z,26.44
2022-09-09T21:24:00.488Z,26.41
2022-09-09T21:29:04.575Z,26.42
2022-09-09T21:34:07.255Z,26.41
2022-09-09T21:39:09.886Z,26.44
2022-09-09T21:44:14.508Z,26.45
2022-09-09T21:49:17.146Z,26.45
2022-09-09T21:54:19.887Z,26.43
2022-09-09T21:59:25.229Z,26.43
2022-09-09T22:04:27.792Z,26.46
2022-09-09T22:09:30.458Z,26.45
2022-09-09T22:14:36.666Z,26.50
2022-09-09T22:19:39.817Z,26.48
2022-09-09T22:24:42.392Z,26.48
2022-09-09T22:29:46.419Z,26.49
2022-09-09T22:34:51.090Z,26.49
2022-09-09T22:39:53.711Z,26.50
2022-09-09T22:44:57.961Z,26.46
2022-09-09T22:50:01.662Z,26.52
2022-09-09T22:55:04.392Z,26.55
2022-09-09T23:00:09.936Z,26.58
2022-09-09T23:05:12.619Z,26.62
2022-09-09T23:10:16.052Z,26.66
2022-09-09T23:15:20.058Z,26.74
2022-09-09T23:20:26.536Z,26.67
2022-09-09T23:25:29.440Z,26.69
2022-09-09T23:30:33.554Z,26.74
2022-09-09T23:35:36.161Z,26.79
2022-09-09T23:40:39.826Z,26.80
2022-09-09T23:45:43.743Z,26.76
2022-09-09T23:50:46.585Z,26.85
2022-09-09T23:55:49.333Z,26.86
